Time;durP1;ratioP1;P1;durP2;ratioP2;P2;SDS_P1;SDS_P2;PMS_P1;PMS_P2;Temp;Humidity;BMP_temperature;BMP_pressure;BME280_temperature;BME280_humidity;BME280_pressure;Samples;Min_cycle;Max_cycle;Signal;HPM_P1;HPM_P2
2022/07/21 00:01:41;;;;;;;4.80;3.50;;;;;;;21.24;48.64;100498.65;107768;1271;96232;-80
2022/07/21 00:04:15;;;;;;;5.50;3.90;;;;;;;21.20;49.01;100499.83;107658;1271;138125;-79
2022/07/21 00:06:48;;;;;;;6.60;3.70;;;;;;;21.16;49.02;100499.75;107803;1271;111343;-79
2022/07/21 00:09:20;;;;;;;5.90;3.70;;;;;;;21.11;48.98;100503.41;107683;1271;138448;-79
2022/07/21 00:11:53;;;;;;;7.00;3.10;;;;;;;21.09;49.14;100505.04;106807;1271;108813;-79
2022/07/21 00:14:25;;;;;;;8.50;4.00;;;;;;;21.06;49.05;100506.30;106144;1273;97896;-79
2022/07/21 00:16:58;;;;;;;5.90;3.40;;;;;;;21.02;49.58;100505.85;107674;1271;139403;-79
2022/07/21 00:19:30;;;;;;;7.90;3.80;;;;;;;21.00;49.55;100507.98;107779;1271;112594;-77
2022/07/21 00:22:03;;;;;;;5.10;3.80;;;;;;;20.97;49.62;100512.75;107685;1271;138907;-78
2022/07/21 00:24:35;;;;;;;6.60;3.90;;;;;;;20.94;49.84;100511.01;107544;1271;108774;-79
2022/07/21 00:27:08;;;;;;;6.40;3.70;;;;;;;20.92;49.96;100509.76;106215;1271;97823;-80
2022/07/21 00:29:40;;;;;;;5.80;3.80;;;;;;;20.90;49.94;100513.84;106183;1271;97813;-79
2022/07/21 00:32:13;;;;;;;6.10;4.20;;;;;;;20.87;49.93;100510.35;106318;1271;112467;-80
2022/07/21 00:34:46;;;;;;;5.10;3.70;;;;;;;20.84;50.32;100512.14;106482;1271;138602;-80
2022/07/21 00:37:19;;;;;;;5.70;3.90;;;;;;;20.79;50.66;100511.54;106093;1271;109203;-79
2022/07/21 00:39:51;;;;;;;5.40;3.90;;;;;;;20.76;50.61;100507.55;107674;1271;138087;-80
2022/07/21 00:42:25;;;;;;;6.50;4.00;;;;;;;20.72;50.71;100509.98;107803;1271;96133;-80
2022/07/21 00:44:58;;;;;;;5.30;4.00;;;;;;;20.67;50.95;100509.41;107805;1271;112428;-80
2022/07/21 00:47:32;;;;;;;6.30;4.40;;;;;;;20.63;50.94;100509.31;107687;1271;137782;-77
2022/07/21 00:50:09;;;;;;;4.70;3.80;;;;;;;20.59;51.41;100506.44;106500;1271;109128;-81
2022/07/21 00:52:42;;;;;;;7.00;3.70;;;;;;;20.55;51.35;100511.31;107638;1271;138057;-80
2022/07/21 00:55:16;;;;;;;5.40;4.30;;;;;;;20.51;51.46;100506.65;106893;1271;97929;-80
2022/07/21 00:57:50;;;;;;;8.40;4.00;;;;;;;20.47;51.69;100508.13;106088;1271;137801;-80
2022/07/21 01:00:24;;;;;;;6.50;4.20;;;;;;;20.45;51.63;100508.64;107797;1271;107611;-78
2022/07/21 01:02:58;;;;;;;6.80;4.10;;;;;;;20.42;51.66;100510.27;107748;1271;106065;-78
2022/07/21 01:05:31;;;;;;;7.10;4.50;;;;;;;20.39;51.66;100515.92;106812;1271;139280;-79
2022/07/21 01:08:04;;;;;;;5.50;4.10;;;;;;;20.35;51.85;100516.89;106269;1271;97808;-79
2022/07/21 01:10:37;;;;;;;7.20;3.60;;;;;;;20.34;52.10;100527.23;106176;1273;138327;-78
2022/07/21 01:13:10;;;;;;;6.80;3.90;;;;;;;20.32;51.97;100534.30;106696;1271;107857;-79
2022/07/21 01:15:43;;;;;;;8.30;4.50;;;;;;;20.29;52.22;100539.59;106201;1271;138420;-80
2022/07/21 01:18:15;;;;;;;6.60;4.70;;;;;;;20.26;52.33;100542.23;106291;1273;97860;-79
2022/07/21 01:20:54;;;;;;;7.00;4.10;;;;;;;20.22;52.46;100545.30;107801;1271;96004;-77
2022/07/21 01:23:26;;;;;;;6.50;3.90;;;;;;;20.20;52.53;100550.77;107694;1271;138308;-79
2022/07/21 01:25:59;;;;;;;5.10;4.00;;;;;;;20.16;52.59;100552.46;106230;1271;109195;-78
2022/07/21 01:28:31;;;;;;;5.40;4.00;;;;;;;20.12;52.71;100554.51;107629;1271;138312;-80
2022/07/21 01:31:03;;;;;;;5.50;4.20;;;;;;;20.09;52.83;100548.52;107039;1271;97903;-79
2022/07/21 01:33:36;;;;;;;5.90;4.10;;;;;;;20.07;52.76;100546.20;106067;1271;138015;-78
2022/07/21 01:36:10;;;;;;;6.30;3.90;;;;;;;20.04;52.78;100545.88;106210;1271;112490;-79
2022/07/21 01:41:33;;;;;;;5.30;4.20;;;;;;;19.98;52.93;100544.36;107022;1271;139296;-79
2022/07/21 01:44:09;;;;;;;8.80;3.90;;;;;;;19.95;52.94;100553.89;105775;1271;97918;-79
2022/07/21 01:46:44;;;;;;;5.00;3.80;;;;;;;19.92;53.19;100553.50;105439;1272;139072;-79
2022/07/21 01:49:18;;;;;;;6.70;4.10;;;;;;;19.89;53.15;100560.41;107141;1271;112503;-80
2022/07/21 01:51:51;;;;;;;4.80;4.00;;;;;;;19.85;53.15;100562.59;107068;1271;140513;-80
2022/07/21 01:54:23;;;;;;;6.30;4.30;;;;;;;19.83;53.29;100563.83;107110;1271;108775;-80
2022/07/21 01:56:56;;;;;;;6.30;4.10;;;;;;;19.81;53.28;100565.74;107161;1271;97518;-80
2022/07/21 01:59:29;;;;;;;6.20;4.30;;;;;;;19.79;53.55;100564.46;107011;1271;138600;-80
2022/07/21 02:02:01;;;;;;;6.60;4.30;;;;;;;19.76;53.47;100561.81;107147;1271;111433;-80
2022/07/21 02:04:34;;;;;;;6.10;4.20;;;;;;;19.74;53.55;100559.45;107012;1271;138717;-79
2022/07/21 02:07:07;;;;;;;5.70;4.00;;;;;;;19.72;53.73;100558.05;107142;1271;109302;-80
2022/07/21 02:09:40;;;;;;;9.40;5.00;;;;;;;19.69;53.65;100558.55;106979;1271;138219;-79
2022/07/21 02:12:13;;;;;;;9.30;4.20;;;;;;;19.67;53.66;100559.96;107170;1271;97219;-80
2022/07/21 02:14:45;;;;;;;5.90;3.90;;;;;;;19.65;53.86;100559.22;107328;1271;112678;-80
2022/07/21 02:17:17;;;;;;;7.60;4.00;;;;;;;19.63;53.92;100562.70;107671;1271;138016;-80
2022/07/21 02:19:50;;;;;;;9.90;4.60;;;;;;;19.60;53.97;100558.66;107772;1271;109065;-80
2022/07/21 02:22:22;;;;;;;7.10;4.20;;;;;;;19.57;54.17;100564.14;107677;1271;138018;-80
2022/07/21 02:24:55;;;;;;;7.80;4.30;;;;;;;19.53;54.18;100563.48;107766;1271;96162;-80
2022/07/21 02:27:27;;;;;;;7.90;4.20;;;;;;;19.50;54.41;100565.23;106126;1271;138695;-79
2022/07/21 02:30:00;;;;;;;11.50;4.80;;;;;;;19.47;54.51;100564.03;106302;1271;109289;-79
2022/07/21 02:32:32;;;;;;;9.70;4.20;;;;;;;19.43;54.50;100567.99;107793;1271;107095;-79
2022/07/21 02:35:06;;;;;;;9.30;4.80;;;;;;;19.39;54.81;100573.21;107693;1271;138671;-80
2022/07/21 02:37:39;;;;;;;5.90;4.10;;;;;;;19.35;54.89;100571.68;107761;1271;96096;-80
2022/07/21 02:40:12;;;;;;;5.40;3.70;;;;;;;19.31;54.89;100570.30;106406;1271;138410;-79
2022/07/21 02:42:44;;;;;;;6.40;4.70;;;;;;;19.29;54.97;100566.58;107644;1271;108443;-79
2022/07/21 02:45:17;;;;;;;8.20;4.60;;;;;;;19.26;55.09;100564.85;106783;1271;138813;-78
2022/07/21 02:47:54;;;;;;;6.80;4.20;;;;;;;19.23;55.14;100566.08;106172;1271;98487;-79
2022/07/21 02:50:28;;;;;;;5.90;4.40;;;;;;;19.20;55.33;100560.97;107807;1271;96083;-80
2022/07/21 02:53:09;;;;;;;8.00;4.70;;;;;;;19.18;55.26;100561.96;107633;1271;139524;-80
2022/07/21 02:55:42;;;;;;;9.60;4.70;;;;;;;19.15;55.37;100555.80;107742;1271;108434;-79
2022/07/21 02:58:17;;;;;;;8.10;4.60;;;;;;;19.13;55.42;100555.27;106050;1271;138775;-79
2022/07/21 03:00:52;;;;;;;9.00;4.90;;;;;;;19.11;55.50;100551.66;107689;1271;96319;-80
2022/07/21 03:03:28;;;;;;;7.50;4.10;;;;;;;19.11;55.46;100549.75;107574;1271;140239;-80
2022/07/21 03:06:01;;;;;;;8.00;4.20;;;;;;;19.10;55.38;100548.23;107753;1271;112373;-80
2022/07/21 03:08:34;;;;;;;6.60;4.40;;;;;;;19.10;55.51;100549.09;107777;1271;108836;-78
2022/07/21 03:11:06;;;;;;;6.80;4.00;;;;;;;19.10;55.39;100545.42;106516;1271;138530;-77
2022/07/21 03:13:41;;;;;;;9.70;3.90;;;;;;;19.11;55.36;100548.53;107749;1271;96118;-78
2022/07/21 03:16:13;;;;;;;9.10;4.10;;;;;;;19.12;55.38;100549.17;107672;1271;138473;-79
2022/07/21 03:18:46;;;;;;;5.90;3.80;;;;;;;19.13;55.28;100547.84;107172;1271;111526;-77
2022/07/21 03:21:19;;;;;;;8.70;4.10;;;;;;;19.14;55.38;100545.69;106090;1271;139487;-79
2022/07/21 03:23:52;;;;;;;7.30;4.00;;;;;;;19.15;55.36;100541.20;107743;1271;107612;-79
2022/07/21 03:26:25;;;;;;;11.60;3.80;;;;;;;19.16;55.34;100538.13;106971;1273;97963;-79
2022/07/21 03:28:57;;;;;;;9.40;4.20;;;;;;;19.18;55.34;100539.09;106383;1271;138607;-80
2022/07/21 03:31:30;;;;;;;10.10;3.70;;;;;;;19.18;55.32;100542.73;107802;1271;112641;-79
2022/07/21 03:34:02;;;;;;;8.50;4.90;;;;;;;19.19;55.31;100542.17;107632;1271;140249;-77
2022/07/21 03:36:34;;;;;;;6.70;4.10;;;;;;;19.20;55.49;100545.65;107689;1271;107190;-77
2022/07/21 03:39:07;;;;;;;5.50;4.30;;;;;;;19.20;55.49;100546.33;107781;1271;96260;-79
2022/07/21 03:41:40;;;;;;;7.50;4.30;;;;;;;19.21;55.55;100548.41;107651;1271;138451;-78
2022/07/21 03:44:12;;;;;;;8.60;3.90;;;;;;;19.22;55.37;100551.73;107780;1271;112753;-77
2022/07/21 03:46:45;;;;;;;10.80;4.00;;;;;;;19.23;55.55;100553.39;107638;1269;138484;-78
2022/07/21 03:49:17;;;;;;;5.70;4.30;;;;;;;19.25;55.47;100547.45;107761;1271;109193;-77
2022/07/21 03:51:50;;;;;;;6.30;4.30;;;;;;;19.27;55.49;100547.98;107643;1271;138922;-78
2022/07/21 03:54:23;;;;;;;6.50;3.90;;;;;;;19.29;55.50;100544.15;107786;1271;95698;-78
2022/07/21 03:56:55;;;;;;;6.20;4.10;;;;;;;19.33;55.45;100544.83;107755;1271;111285;-79
2022/07/21 03:59:28;;;;;;;7.60;4.00;;;;;;;19.36;55.43;100550.10;106870;1271;139301;-80
2022/07/21 04:02:00;;;;;;;9.00;4.00;;;;;;;19.39;55.39;100548.17;107784;1271;109164;-77
2022/07/21 04:04:32;;;;;;;9.50;3.90;;;;;;;19.42;55.23;100550.24;106776;1269;138545;-78
2022/07/21 04:07:06;;;;;;;5.40;3.80;;;;;;;19.46;55.07;100548.73;106201;1271;97909;-79
2022/07/21 04:09:39;;;;;;;12.10;3.50;;;;;;;19.51;55.04;100549.70;106101;1271;139657;-79
2022/07/21 04:12:12;;;;;;;5.70;3.60;;;;;;;19.55;54.87;100550.27;107746;1270;109283;-77
2022/07/21 04:14:45;;;;;;;6.20;3.60;;;;;;;19.60;54.68;100554.02;107591;1271;109016;-78
2022/07/21 04:17:19;;;;;;;7.50;3.50;;;;;;;19.66;54.57;100555.60;106993;1271;138734;-77
2022/07/21 04:19:52;;;;;;;7.80;3.60;;;;;;;19.71;54.38;100556.86;107132;1271;97239;-78
2022/07/21 04:22:29;;;;;;;13.80;4.50;;;;;;;19.77;54.27;100560.02;107026;1271;138055;-79
2022/07/21 04:25:02;;;;;;;8.40;3.50;;;;;;;19.82;54.04;100564.39;107143;1271;109211;-79
2022/07/21 04:27:35;;;;;;;5.90;2.80;;;;;;;19.89;53.80;100564.80;107001;1271;139549;-78
2022/07/21 04:30:11;;;;;;;11.40;3.40;;;;;;;19.96;53.49;100566.52;107125;1271;97705;-78
2022/07/21 04:32:44;;;;;;;7.20;3.20;;;;;;;20.03;53.49;100564.27;107166;1271;96503;-78
2022/07/21 04:35:17;;;;;;;5.90;3.10;;;;;;;20.11;53.41;100563.05;107012;1271;137927;-77
2022/07/21 04:37:50;;;;;;;8.70;3.30;;;;;;;20.18;53.17;100563.96;107130;1271;109003;-79
2022/07/21 04:40:22;;;;;;;6.10;3.20;;;;;;;20.25;53.09;100566.32;106998;1271;140194;-78
2022/07/21 04:42:55;;;;;;;8.40;3.50;;;;;;;20.32;52.75;100565.55;107106;1271;96567;-78
2022/07/21 04:45:27;;;;;;;5.70;3.20;;;;;;;20.38;52.58;100567.41;107055;1271;139578;-79
2022/07/21 04:48:00;;;;;;;6.70;3.00;;;;;;;20.43;52.50;100566.73;107030;1273;113008;-79
2022/07/21 04:50:33;;;;;;;10.50;3.40;;;;;;;20.48;52.08;100565.66;107187;1271;109035;-79
2022/07/21 04:53:05;;;;;;;5.30;2.90;;;;;;;20.56;51.96;100566.73;107020;1271;138814;-79
2022/07/21 04:55:38;;;;;;;6.00;2.90;;;;;;;20.63;51.48;100558.15;107110;1271;96547;-79
2022/07/21 04:58:10;;;;;;;5.90;2.90;;;;;;;20.70;51.07;100555.17;106974;1271;137837;-80
2022/07/21 05:00:43;;;;;;;3.90;2.80;;;;;;;20.81;51.00;100554.92;107110;1271;112535;-79
2022/07/21 05:03:16;;;;;;;6.50;2.40;;;;;;;20.91;50.34;100554.02;107039;1271;138647;-78
2022/07/21 05:05:49;;;;;;;8.10;2.70;;;;;;;21.00;50.21;100551.23;107091;1271;109318;-78
2022/07/21 05:08:21;;;;;;;5.80;2.30;;;;;;;21.12;49.76;100542.64;107137;1271;96292;-79
2022/07/21 05:10:54;;;;;;;4.60;2.70;;;;;;;21.28;49.43;100543.44;107007;1271;139378;-80
2022/07/21 05:13:26;;;;;;;6.50;2.60;;;;;;;21.46;49.21;100546.91;107099;1271;112400;-79
2022/07/21 05:15:59;;;;;;;9.30;2.90;;;;;;;21.66;49.04;100539.28;106995;1271;138185;-79
2022/07/21 05:18:33;;;;;;;5.50;2.70;;;;;;;21.88;48.70;100541.36;107083;1271;109142;-79
2022/07/21 05:21:06;;;;;;;7.50;2.40;;;;;;;22.15;48.23;100538.26;107049;1271;96956;-79
2022/07/21 05:23:39;;;;;;;7.00;2.40;;;;;;;22.40;47.87;100541.88;107016;1271;139795;-80
2022/07/21 05:26:12;;;;;;;9.30;2.80;;;;;;;22.59;46.66;100543.55;107673;1271;113487;-79
2022/07/21 05:28:44;;;;;;;7.20;2.70;;;;;;;22.73;46.34;100543.59;107636;1271;138499;-78
2022/07/21 05:31:17;;;;;;;7.00;2.40;;;;;;;22.89;45.16;100555.61;107798;1271;106685;-78
2022/07/21 05:33:49;;;;;;;5.80;2.40;;;;;;;22.95;44.38;100553.20;107400;1271;138721;-78
2022/07/21 05:36:22;;;;;;;8.50;2.30;;;;;;;23.05;44.42;100554.17;106279;1271;97841;-78
2022/07/21 05:38:55;;;;;;;4.50;2.30;;;;;;;23.24;43.96;100551.77;106179;1271;112286;-77
2022/07/21 05:41:28;;;;;;;5.80;2.30;;;;;;;23.72;43.98;100546.58;106144;1271;138021;-79
2022/07/21 05:44:01;;;;;;;5.60;2.10;;;;;;;24.60;42.25;100543.11;107666;1271;108872;-80
2022/07/21 05:46:33;;;;;;;6.20;2.20;;;;;;;25.69;40.97;100545.30;107416;1271;138118;-79
2022/07/21 05:49:05;;;;;;;4.20;2.20;;;;;;;26.73;39.33;100540.51;106248;1271;97828;-80
2022/07/21 05:51:38;;;;;;;6.30;2.50;;;;;;;27.69;38.05;100539.99;107712;1271;138189;-80
2022/07/21 05:54:10;;;;;;;5.10;1.90;;;;;;;28.64;35.68;100539.48;107803;1271;109200;-79
2022/07/21 05:56:43;;;;;;;8.60;2.30;;;;;;;29.35;34.44;100538.06;107775;1270;108656;-79
2022/07/21 05:59:15;;;;;;;8.40;2.30;;;;;;;30.25;33.07;100534.06;107382;1270;137989;-80
2022/07/21 06:01:48;;;;;;;7.90;2.20;;;;;;;30.99;32.08;100531.52;107538;1271;97497;-80
2022/07/21 06:04:20;;;;;;;4.70;2.00;;;;;;;31.83;31.21;100531.88;106814;1273;137874;-79
2022/07/21 06:06:53;;;;;;;6.70;2.00;;;;;;;32.39;29.36;100524.13;107164;1270;107829;-79
2022/07/21 06:09:26;;;;;;;4.20;2.00;;;;;;;32.73;28.85;100527.97;106134;1271;141066;-78
2022/07/21 06:11:59;;;;;;;5.80;2.10;;;;;;;33.05;28.54;100523.14;106419;1271;97852;-79
2022/07/21 06:14:32;;;;;;;6.60;2.50;;;;;;;33.43;27.98;100521.77;107742;1271;96442;-78
2022/07/21 06:17:05;;;;;;;5.30;2.30;;;;;;;33.77;27.27;100514.73;107635;1271;138206;-79
2022/07/21 06:19:37;;;;;;;6.20;1.90;;;;;;;34.10;26.48;100518.65;105962;1271;108287;-79
2022/07/21 06:22:11;;;;;;;7.30;2.20;;;;;;;34.44;26.45;100516.99;106075;1270;137978;-79
2022/07/21 06:24:43;;;;;;;4.20;2.10;;;;;;;35.00;26.05;100504.38;106207;1271;97809;-79
2022/07/21 06:27:16;;;;;;;6.40;2.00;;;;;;;35.46;25.94;100505.36;107561;1271;137942;-78
2022/07/21 06:29:48;;;;;;;8.20;2.30;;;;;;;35.85;25.00;100510.91;107454;1271;111871;-79
2022/07/21 06:32:21;;;;;;;8.80;2.00;;;;;;;35.97;24.55;100505.66;107779;1271;108903;-79
2022/07/21 06:34:53;;;;;;;6.10;1.90;;;;;;;36.21;24.40;100506.74;106100;1271;138874;-79
2022/07/21 06:37:26;;;;;;;3.40;1.90;;;;;;;36.40;23.81;100500.39;107780;1271;96081;-79
2022/07/21 06:39:59;;;;;;;6.60;1.80;;;;;;;36.44;23.32;100504.35;107701;1271;138718;-79
2022/07/21 06:42:32;;;;;;;6.40;2.10;;;;;;;36.52;22.86;100504.46;107369;1271;111530;-79
2022/07/21 06:45:06;;;;;;;4.60;2.00;;;;;;;36.58;23.10;100501.27;107763;1271;107809;-79
2022/07/21 06:47:38;;;;;;;2.90;1.80;;;;;;;36.91;22.94;100499.26;107402;1271;138178;-80
2022/07/21 06:50:12;;;;;;;6.80;1.80;;;;;;;37.30;22.64;100500.04;107823;1271;96034;-80
2022/07/21 06:52:45;;;;;;;6.90;2.00;;;;;;;37.53;22.56;100501.86;107069;1271;139460;-79
2022/07/21 06:55:18;;;;;;;6.50;2.10;;;;;;;37.63;22.11;100502.71;106177;1271;112490;-78
2022/07/21 06:57:51;;;;;;;7.60;1.90;;;;;;;37.77;21.60;100506.38;107713;1271;139366;-78
2022/07/21 07:00:24;;;;;;;5.50;1.90;;;;;;;37.87;21.60;100504.79;107000;1271;108865;-78
2022/07/21 07:02:56;;;;;;;3.70;1.60;;;;;;;38.10;21.32;100504.92;107074;1271;97529;-79
2022/07/21 07:05:30;;;;;;;10.40;1.90;;;;;;;38.26;21.10;100504.39;107039;1271;138746;-79
2022/07/21 07:08:03;;;;;;;5.00;1.60;;;;;;;38.42;21.00;100509.97;106833;1271;111483;-80
2022/07/21 07:10:42;;;;;;;7.60;1.90;;;;;;;38.51;20.47;100510.93;105413;1271;139717;-78
2022/07/21 07:13:17;;;;;;;3.20;1.50;;;;;;;38.51;20.33;100517.27;107151;1271;107890;-79
2022/07/21 07:16:10;;;;;;;3.60;1.90;;;;;;;38.60;19.80;100520.27;107040;1271;137946;-78
2022/07/21 07:18:43;;;;;;;3.20;1.70;;;;;;;38.40;19.83;100524.83;107153;1271;96122;-80
2022/07/21 07:21:15;;;;;;;8.20;1.70;;;;;;;38.29;20.39;100518.02;106923;1271;138018;-79
2022/07/21 07:23:48;;;;;;;5.70;1.60;;;;;;;38.54;20.21;100517.80;107170;1271;108891;-77
2022/07/21 07:26:21;;;;;;;9.30;1.90;;;;;;;38.42;19.48;100525.98;107155;1271;108851;-78
2022/07/21 07:28:54;;;;;;;8.90;1.90;;;;;;;38.48;19.96;100529.61;106639;1271;137922;-79
2022/07/21 07:31:27;;;;;;;4.30;1.70;;;;;;;38.67;19.62;100524.00;105523;1271;97950;-78
2022/07/21 07:34:00;;;;;;;6.30;1.90;;;;;;;38.56;19.31;100532.76;105396;1271;137880;-79
2022/07/21 07:36:33;;;;;;;5.70;1.70;;;;;;;38.34;19.77;100540.85;105420;1271;109779;-80
2022/07/21 07:39:10;;;;;;;5.50;1.70;;;;;;;38.41;20.10;100544.52;107097;1271;109013;-78
2022/07/21 07:41:43;;;;;;;3.20;1.70;;;;;;;38.82;20.50;100542.17;107114;1271;97453;-78
2022/07/21 07:44:17;;;;;;;4.90;1.80;;;;;;;39.42;20.13;100541.19;107176;1271;96138;-78
2022/07/21 07:46:49;;;;;;;2.60;1.70;;;;;;;39.52;19.31;100546.30;107071;1271;139593;-78
2022/07/21 07:49:22;;;;;;;4.80;1.70;;;;;;;39.54;19.26;100544.85;107167;1271;106776;-78
2022/07/21 07:51:54;;;;;;;2.40;1.50;;;;;;;39.59;19.19;100547.25;107075;1271;140125;-79
2022/07/21 07:54:27;;;;;;;2.80;1.80;;;;;;;39.61;18.64;100545.33;107137;1271;96282;-79
2022/07/21 07:57:00;;;;;;;4.30;2.00;;;;;;;39.61;19.05;100542.05;107185;1271;96289;-78
2022/07/21 07:59:32;;;;;;;4.00;1.60;;;;;;;39.97;19.13;100540.88;107026;1271;139548;-78
2022/07/21 08:02:04;;;;;;;1.90;1.60;;;;;;;40.35;19.42;100540.34;107405;1271;108920;-78
2022/07/21 08:04:37;;;;;;;7.00;1.80;;;;;;;40.51;18.14;100544.17;106760;1271;138239;-77
2022/07/21 08:07:10;;;;;;;4.40;1.50;;;;;;;40.35;17.86;100535.49;106211;1271;97848;-79
2022/07/21 08:09:43;;;;;;;5.60;1.80;;;;;;;39.88;17.82;100534.84;106536;1271;139230;-77
2022/07/21 08:12:15;;;;;;;6.70;1.90;;;;;;;39.45;18.38;100531.52;106316;1271;112161;-79
2022/07/21 08:14:48;;;;;;;4.80;1.80;;;;;;;39.38;18.94;100522.41;106888;1273;109295;-80
2022/07/21 08:17:20;;;;;;;5.10;1.80;;;;;;;39.49;18.71;100517.70;106119;1271;138482;-79
2022/07/21 08:19:53;;;;;;;3.50;1.60;;;;;;;39.65;18.95;100519.09;107752;1271;96131;-80
2022/07/21 08:22:25;;;;;;;7.10;1.90;;;;;;;39.69;18.62;100516.23;106773;1271;137944;-79
2022/07/21 08:24:58;;;;;;;4.60;1.40;;;;;;;39.55;18.00;100523.48;105877;1271;112424;-80
2022/07/21 08:27:30;;;;;;;4.10;1.90;;;;;;;39.26;18.12;100517.00;106126;1271;138161;-79
2022/07/21 08:30:04;;;;;;;6.90;1.70;;;;;;;39.04;18.14;100513.87;106016;1271;108067;-80
2022/07/21 08:32:37;;;;;;;7.50;1.60;;;;;;;38.78;18.17;100510.48;107763;1271;96213;-78
2022/07/21 08:35:12;;;;;;;2.30;1.40;;;;;;;38.57;18.46;100505.54;107612;1271;137788;-81
2022/07/21 08:37:53;;;;;;;5.50;1.40;;;;;;;38.31;18.77;100506.69;107529;1271;110982;-82
2022/07/21 08:40:27;;;;;;;4.60;1.50;;;;;;;37.80;18.79;100506.77;107670;1271;138001;-80
2022/07/21 08:43:00;;;;;;;3.60;1.30;;;;;;;37.44;19.45;100507.83;107349;1271;108955;-79
2022/07/21 08:45:33;;;;;;;2.30;1.40;;;;;;;37.45;19.39;100512.66;105847;1271;139059;-80
2022/07/21 08:48:07;;;;;;;4.90;1.30;;;;;;;37.57;20.07;100515.95;107775;1271;96282;-79
2022/07/21 08:50:41;;;;;;;4.90;1.40;;;;;;;37.83;19.57;100519.14;106300;1271;111370;-79
2022/07/21 08:53:13;;;;;;;3.50;1.50;;;;;;;37.90;19.62;100520.14;105764;1272;138111;-80
2022/07/21 08:55:48;;;;;;;3.40;1.20;;;;;;;38.00;19.63;100518.08;106653;1271;107672;-80
2022/07/21 08:58:20;;;;;;;4.20;1.30;;;;;;;38.14;19.68;100517.05;106039;1271;137988;-80
2022/07/21 09:00:54;;;;;;;4.70;1.40;;;;;;;38.37;19.41;100521.30;107788;1271;96041;-79
2022/07/21 09:03:29;;;;;;;4.20;1.30;;;;;;;38.36;18.92;100521.44;106628;1271;138409;-79
2022/07/21 09:06:08;;;;;;;2.70;1.30;;;;;;;38.25;19.71;100524.96;106789;1271;109090;-80
2022/07/21 09:08:43;;;;;;;4.40;1.60;;;;;;;38.50;19.04;100532.56;107784;1271;107663;-80
2022/07/21 09:11:19;;;;;;;3.40;1.40;;;;;;;38.25;18.81;100534.81;107670;1271;138554;-81
2022/07/21 09:14:08;;;;;;;3.70;1.20;;;;;;;38.05;18.52;100535.48;107712;1271;95768;-80
2022/07/21 09:16:43;;;;;;;1.90;1.20;;;;;;;38.01;18.49;100529.33;107678;1271;138216;-80
2022/07/21 09:19:20;;;;;;;3.70;1.50;;;;;;;37.82;18.79;100520.86;107747;1271;108954;-80
2022/07/21 09:21:55;;;;;;;3.20;1.40;;;;;;;37.67;19.00;100512.85;106799;1271;138186;-80
2022/07/21 09:24:29;;;;;;;;;;;;;;;37.60;19.68;100508.98;106143;1273;97820;-80
2022/07/21 09:27:05;;;;;;;1.90;1.30;;;;;;;37.81;19.80;100500.39;105996;1271;291600;-78
2022/07/21 09:29:43;;;;;;;4.30;1.30;;;;;;;38.17;19.38;100501.59;107631;1271;139148;-79
2022/07/21 09:32:19;;;;;;;5.90;1.40;;;;;;;38.19;18.23;100499.59;107774;1269;107906;-79
2022/07/21 09:34:53;;;;;;;4.10;1.30;;;;;;;37.98;18.76;100495.45;106928;1271;141249;-79
2022/07/21 09:37:26;;;;;;;5.60;1.40;;;;;;;37.84;19.19;100492.99;107648;1271;95878;-80
2022/07/21 09:40:03;;;;;;;4.60;1.30;;;;;;;38.07;19.04;100495.88;107031;1271;139569;-79
2022/07/21 09:42:37;;;;;;;4.20;1.40;;;;;;;38.15;18.96;100493.95;106998;1271;112440;-79
2022/07/21 09:45:12;;;;;;;7.90;1.50;;;;;;;38.30;18.71;100492.61;107475;1271;109053;-79
2022/07/21 09:47:46;;;;;;;5.90;1.50;;;;;;;38.32;18.42;100486.34;107546;1271;108846;-81
2022/07/21 09:50:19;;;;;;;2.80;1.30;;;;;;;38.12;18.61;100493.85;106230;1271;97909;-78
2022/07/21 09:52:58;;;;;;;3.10;1.50;;;;;;;37.94;18.68;100491.58;107126;1271;137879;-79
2022/07/21 09:55:31;;;;;;;5.30;1.30;;;;;;;37.84;19.13;100493.08;107780;1271;112556;-80
2022/07/21 09:58:04;;;;;;;5.30;1.60;;;;;;;37.95;19.34;100493.79;107287;1271;137935;-79
2022/07/21 10:00:37;;;;;;;3.70;1.30;;;;;;;38.24;18.85;100495.77;107117;1271;108765;-80
2022/07/21 10:03:13;;;;;;;5.10;1.50;;;;;;;38.31;18.86;100486.27;107523;1271;96523;-80
2022/07/21 10:05:45;;;;;;;4.50;1.20;;;;;;;38.45;19.03;100488.92;107231;1271;97924;-79
2022/07/21 10:08:18;;;;;;;3.80;1.30;;;;;;;38.52;18.68;100486.39;107734;1271;112351;-79
2022/07/21 10:10:52;;;;;;;4.30;1.50;;;;;;;38.44;18.21;100485.09;107662;1271;138048;-79
2022/07/21 10:13:45;;;;;;;3.30;1.40;;;;;;;38.35;19.09;100486.39;106174;1271;109084;-80
2022/07/21 10:16:18;;;;;;;6.10;1.20;;;;;;;38.47;19.29;100486.56;106102;1272;139173;-80
2022/07/21 10:19:10;;;;;;;3.10;1.40;;;;;;;38.63;19.54;100484.15;106205;1271;97838;-80
2022/07/21 10:21:47;;;;;;;10.20;1.80;;;;;;;38.89;20.04;100480.52;107488;1271;137849;-80
2022/07/21 10:24:20;;;;;;;2.60;1.30;;;;;;;39.24;19.49;100483.11;106081;1272;108925;-81
2022/07/21 10:27:10;;;;;;;4.00;1.50;;;;;;;39.39;18.78;100482.00;106201;1271;108988;-82
2022/07/21 10:29:55;;;;;;;3.80;1.40;;;;;;;38.88;18.64;100472.77;105751;1273;99611;-81
2022/07/21 10:32:36;;;;;;;7.30;1.50;;;;;;;38.76;19.08;100475.34;107667;1273;96136;-81
2022/07/21 10:35:30;;;;;;;2.60;1.30;;;;;;;38.73;18.93;100475.55;107469;1271;138098;-81
2022/07/21 10:38:03;;;;;;;4.20;1.60;;;;;;;38.39;18.51;100478.47;106275;1271;109076;-78
2022/07/21 10:40:39;;;;;;;6.60;1.60;;;;;;;37.84;18.72;100467.56;106089;1271;138141;-77
2022/07/21 10:43:42;;;;;;;9.10;1.40;;;;;;;37.47;19.02;100462.64;107745;1271;96165;-79
2022/07/21 10:46:40;;;;;;;3.10;1.50;;;;;;;37.40;19.76;100456.70;107660;1271;138043;-80
2022/07/21 10:49:32;;;;;;;5.20;1.60;;;;;;;37.60;19.92;100458.40;107533;1271;112543;-80
2022/07/21 10:52:05;;;;;;;4.00;1.90;;;;;;;37.81;20.03;100457.34;107125;1271;138095;-80
2022/07/21 10:54:37;;;;;;;3.50;1.70;;;;;;;37.96;19.39;100458.47;106153;1271;108819;-81
2022/07/21 10:57:29;;;;;;;5.40;1.60;;;;;;;37.54;19.04;100457.52;106201;1271;97947;-80
2022/07/21 11:00:24;;;;;;;3.00;1.60;;;;;;;37.04;19.44;100451.36;106202;1273;97853;-79
2022/07/21 11:02:59;;;;;;;4.10;1.50;;;;;;;36.91;20.14;100447.58;107047;1271;112575;-80
2022/07/21 11:05:34;;;;;;;4.90;1.40;;;;;;;36.82;20.03;100441.42;107122;1271;139517;-80
2022/07/21 11:08:19;;;;;;;7.20;1.60;;;;;;;36.57;20.13;100436.34;107689;1271;108343;-81
2022/07/21 11:10:53;;;;;;;4.50;1.60;;;;;;;36.55;20.61;100437.57;107602;1271;139091;-80
2022/07/21 11:13:27;;;;;;;5.70;1.70;;;;;;;36.46;20.05;100444.63;107796;1271;95920;-80
2022/07/21 11:16:02;;;;;;;2.90;1.50;;;;;;;35.99;20.08;100444.02;107121;1271;139046;-80
2022/07/21 11:18:35;;;;;;;5.60;1.70;;;;;;;35.55;20.30;100444.41;106162;1273;110652;-79
2022/07/21 11:21:13;;;;;;;4.60;2.20;;;;;;;35.12;20.63;100443.55;106210;1272;108924;-79
2022/07/21 11:23:49;;;;;;;2.90;1.70;;;;;;;34.86;21.39;100440.98;106225;1271;97839;-80
2022/07/21 11:26:27;;;;;;;5.30;1.70;;;;;;;34.67;21.35;100442.98;107758;1271;96628;-80
2022/07/21 11:29:07;;;;;;;11.90;1.80;;;;;;;34.43;21.76;100443.44;107594;1271;137852;-81
2022/07/21 11:31:49;;;;;;;11.90;1.90;;;;;;;34.29;21.81;100440.23;106645;1271;107775;-79
2022/07/21 11:34:23;;;;;;;5.10;1.90;;;;;;;34.13;22.26;100430.11;106845;1271;140326;-79
2022/07/21 11:37:03;;;;;;;5.30;1.80;;;;;;;34.33;22.59;100427.77;107247;1271;97927;-79
2022/07/21 11:39:56;;;;;;;7.40;2.00;;;;;;;34.49;22.35;100431.23;107602;1271;138451;-79
2022/07/21 11:42:30;;;;;;;5.50;2.20;;;;;;;34.20;21.86;100425.43;107598;1271;111424;-80
2022/07/21 11:45:03;;;;;;;6.10;2.00;;;;;;;33.79;22.07;100422.61;107770;1271;109089;-79
2022/07/21 11:47:36;;;;;;;7.70;2.20;;;;;;;33.72;22.44;100421.14;107609;1271;138888;-79